createdAt,value
2022-11-18T00:01:47.320Z,2.22
2022-11-18T00:04:15.163Z,2.10
2022-11-18T00:06:42.929Z,2.67
2022-11-18T00:09:10.645Z,2.33
2022-11-18T00:11:56.862Z,2.08
2022-11-18T00:14:27.496Z,2.10
2022-11-18T00:16:56.874Z,2.10
2022-11-18T00:19:27.319Z,2.20
2022-11-18T00:21:55.993Z,2.70
2022-11-18T00:24:24.158Z,2.90
2022-11-18T00:26:53.507Z,3.20
2022-11-18T00:29:21.802Z,2.60
2022-11-18T00:31:49.869Z,2.50
2022-11-18T00:34:19.182Z,2.90
2022-11-18T00:36:47.732Z,2.58
2022-11-18T00:39:17.304Z,2.60
2022-11-18T00:42:02.979Z,2.20
2022-11-18T00:44:32.172Z,2.20
2022-11-18T00:46:59.922Z,2.20
2022-11-18T00:49:27.632Z,2.27
2022-11-18T00:51:55.455Z,2.13
2022-11-18T00:54:23.502Z,2.60
2022-11-18T00:56:51.143Z,3.00
2022-11-18T00:59:19.024Z,4.40
2022-11-18T01:01:49.097Z,3.50
2022-11-18T01:04:17.105Z,3.33
2022-11-18T01:06:45.004Z,3.17
2022-11-18T01:09:12.716Z,3.00
2022-11-18T01:11:57.904Z,3.05
2022-11-18T01:14:25.875Z,3.22
2022-11-18T01:16:56.513Z,3.22
2022-11-18T01:19:24.731Z,3.00
2022-11-18T01:21:52.754Z,3.05
2022-11-18T01:24:20.405Z,3.00
2022-11-18T01:26:48.336Z,3.00
2022-11-18T01:29:17.262Z,3.28
2022-11-18T01:32:08.844Z,3.00
2022-11-18T01:34:34.233Z,2.92
2022-11-18T01:37:01.861Z,2.90
2022-11-18T01:39:29.728Z,2.90
2022-11-18T01:41:57.411Z,3.13
2022-11-18T01:45:10.275Z,3.05
2022-11-18T01:47:43.292Z,3.20
2022-11-18T01:50:14.366Z,2.90
2022-11-18T01:52:46.236Z,2.35
2022-11-18T01:55:20.366Z,1.50
2022-11-18T01:57:50.998Z,1.52
2022-11-18T02:00:18.916Z,1.50
2022-11-18T02:02:47.161Z,1.40
2022-11-18T02:05:17.696Z,1.33
2022-11-18T02:07:45.493Z,1.52
2022-11-18T02:10:21.195Z,1.50
2022-11-18T02:12:49.919Z,1.65
2022-11-18T02:15:18.608Z,1.80
2022-11-18T02:17:57.201Z,2.00
2022-11-18T02:20:38.361Z,1.95
2022-11-18T02:23:33.040Z,1.80
2022-11-18T02:26:27.361Z,2.20
2022-11-18T02:29:04.058Z,2.10
2022-11-18T02:31:36.419Z,1.70
2022-11-18T02:34:14.487Z,1.80
2022-11-18T02:36:47.975Z,1.70
2022-11-18T02:39:22.843Z,1.90
2022-11-18T02:41:55.199Z,1.90
2022-11-18T02:44:27.366Z,2.00
2022-11-18T02:46:59.333Z,2.10
2022-11-18T02:49:39.909Z,2.17
2022-11-18T02:52:11.322Z,1.80
2022-11-18T02:54:42.702Z,1.95
2022-11-18T02:57:10.951Z,1.90
2022-11-18T02:59:40.446Z,2.00
2022-11-18T03:02:08.110Z,1.50
2022-11-18T03:04:36.642Z,2.00
2022-11-18T03:07:12.232Z,1.73
2022-11-18T03:09:43.470Z,1.98
2022-11-18T03:12:17.266Z,1.90
2022-11-18T03:14:56.308Z,2.13
2022-11-18T03:17:32.439Z,2.13
2022-11-18T03:20:11.679Z,2.25
2022-11-18T03:22:45.718Z,2.33
2022-11-18T03:25:21.096Z,2.40
2022-11-18T03:27:55.134Z,2.38
2022-11-18T03:30:26.178Z,2.50
2022-11-18T03:32:59.468Z,2.33
2022-11-18T03:35:30.342Z,2.20
2022-11-18T03:38:09.478Z,2.50
2022-11-18T03:40:40.496Z,2.33
2022-11-18T03:43:14.186Z,2.33
2022-11-18T03:45:48.552Z,2.35
2022-11-18T03:48:18.339Z,2.70
2022-11-18T03:50:50.119Z,3.10
2022-11-18T03:53:20.620Z,2.70
2022-11-18T03:55:52.284Z,2.85
2022-11-18T03:58:25.300Z,3.00
2022-11-18T04:01:02.695Z,2.90
2022-11-18T04:03:30.343Z,3.03
2022-11-18T04:06:05.189Z,2.78
2022-11-18T04:08:39.181Z,1.40
2022-11-18T04:11:33.990Z,1.20
2022-11-18T04:14:03.686Z,0.80
2022-11-18T04:16:39.042Z,0.80
2022-11-18T04:19:06.750Z,0.75
2022-11-18T04:21:34.366Z,0.70
2022-11-18T04:24:02.314Z,0.70
2022-11-18T04:26:31.443Z,0.50
2022-11-18T04:28:59.100Z,0.50
2022-11-18T04:31:26.691Z,0.40
2022-11-18T04:33:55.673Z,0.25
2022-11-18T04:36:23.390Z,0.40
2022-11-18T04:38:50.996Z,0.40
2022-11-18T04:41:18.589Z,0.30
2022-11-18T04:43:46.203Z,0.40
2022-11-18T04:46:13.851Z,0.30
2022-11-18T04:48:41.545Z,0.30
2022-11-18T04:51:10.582Z,0.40
2022-11-18T04:53:38.224Z,0.40
2022-11-18T04:56:08.819Z,0.40
2022-11-18T04:58:36.632Z,0.20
2022-11-18T05:01:04.328Z,0.30
2022-11-18T05:03:32.014Z,0.30
2022-11-18T05:06:02.704Z,0.30
2022-11-18T05:08:32.605Z,0.20
2022-11-18T05:11:20.635Z,0.20
2022-11-18T05:13:47.227Z,0.30
2022-11-18T05:16:14.886Z,0.20
2022-11-18T05:18:42.614Z,0.20
2022-11-18T05:21:10.359Z,0.30
2022-11-18T05:23:39.299Z,0.20
2022-11-18T05:26:08.071Z,0.20
2022-11-18T05:28:37.086Z,0.20
2022-11-18T05:31:08.390Z,0.20
2022-11-18T05:33:35.995Z,0.20
2022-11-18T05:36:05.002Z,0.20
2022-11-18T05:38:33.377Z,0.10
2022-11-18T05:41:03.136Z,0.20
2022-11-18T05:43:30.343Z,0.20
2022-11-18T05:45:58.677Z,0.20
2022-11-18T05:48:26.533Z,0.20
2022-11-18T05:50:55.340Z,0.20
2022-11-18T05:53:25.313Z,0.10
2022-11-18T05:55:57.989Z,0.15
2022-11-18T05:58:27.225Z,0.40
2022-11-18T06:00:57.716Z,0.40
2022-11-18T06:03:30.899Z,0.20
2022-11-18T06:06:02.647Z,1.45
2022-11-18T06:08:35.284Z,0.50
2022-11-18T06:11:03.279Z,0.10
2022-11-18T06:13:37.903Z,0.10
2022-11-18T06:16:06.056Z,0.10
2022-11-18T06:18:35.888Z,0.20
2022-11-18T06:21:06.533Z,0.22
2022-11-18T06:23:38.014Z,0.20
2022-11-18T06:26:06.224Z,0.20
2022-11-18T06:28:35.394Z,0.10
2022-11-18T06:31:03.067Z,0.10
2022-11-18T06:33:30.775Z,0.20
2022-11-18T06:35:58.376Z,0.20
2022-11-18T06:38:26.369Z,0.85
2022-11-18T06:40:54.078Z,0.50
2022-11-18T06:43:41.561Z,0.20
2022-11-18T06:46:30.409Z,0.20
2022-11-18T06:48:58.082Z,0.30
2022-11-18T06:51:26.500Z,0.40
2022-11-18T06:53:54.157Z,0.60
2022-11-18T06:56:23.381Z,0.77
2022-11-18T06:58:54.195Z,0.70
2022-11-18T07:01:25.025Z,0.50
2022-11-18T07:03:53.428Z,0.40
2022-11-18T07:06:23.279Z,0.30
2022-11-18T07:08:51.516Z,1.10
2022-11-18T07:11:21.169Z,0.80
2022-11-18T07:13:49.302Z,0.50
2022-11-18T07:16:19.038Z,0.50
2022-11-18T07:18:49.484Z,0.60
2022-11-18T07:21:19.074Z,1.70
2022-11-18T07:23:47.038Z,0.85
2022-11-18T07:26:15.527Z,0.63
2022-11-18T07:28:43.700Z,0.63
2022-11-18T07:31:13.183Z,0.80
2022-11-18T07:33:42.470Z,0.70
2022-11-18T07:36:13.988Z,0.93
2022-11-18T07:38:42.181Z,1.40
2022-11-18T07:41:11.999Z,1.50
2022-11-18T07:43:40.141Z,1.73
2022-11-18T07:46:16.641Z,1.20
2022-11-18T07:48:45.728Z,0.60
2022-11-18T07:51:15.676Z,1.45
2022-11-18T07:53:44.340Z,1.85
2022-11-18T07:56:13.726Z,1.60
2022-11-18T07:58:42.071Z,1.83
2022-11-18T08:01:11.667Z,2.57
2022-11-18T08:03:40.440Z,4.03
2022-11-18T08:06:09.841Z,2.83
2022-11-18T08:08:39.148Z,3.20
2022-11-18T08:11:09.144Z,3.50
2022-11-18T08:13:37.239Z,2.90
2022-11-18T08:16:06.124Z,2.35
2022-11-18T08:18:34.005Z,1.83
2022-11-18T08:21:04.772Z,1.70
2022-11-18T08:23:37.430Z,1.70
2022-11-18T08:26:11.368Z,0.95
2022-11-18T08:28:39.470Z,1.80
2022-11-18T08:31:11.779Z,1.60
2022-11-18T08:33:39.575Z,2.40
2022-11-18T08:36:08.861Z,2.45
2022-11-18T08:38:36.820Z,2.20
2022-11-18T08:41:07.193Z,1.38
2022-11-18T08:43:37.988Z,2.10
2022-11-18T08:46:05.903Z,2.10
2022-11-18T08:48:33.569Z,2.60
2022-11-18T08:51:02.111Z,2.42
2022-11-18T08:53:29.931Z,3.00
2022-11-18T08:55:58.582Z,3.10
2022-11-18T08:58:26.643Z,2.90
2022-11-18T09:00:56.333Z,2.20
2022-11-18T09:03:24.372Z,3.28
2022-11-18T09:05:52.034Z,2.40
2022-11-18T09:08:19.958Z,3.80
2022-11-18T09:10:47.666Z,2.70
2022-11-18T09:16:05.899Z,6.70
2022-11-18T09:18:34.267Z,3.33
2022-11-18T09:21:04.022Z,6.43
2022-11-18T09:23:32.632Z,4.05
2022-11-18T09:26:00.571Z,2.40
2022-11-18T09:28:28.790Z,3.10
2022-11-18T09:30:56.508Z,3.05
2022-11-18T09:33:26.173Z,2.17
2022-11-18T09:35:53.855Z,3.70
2022-11-18T09:38:21.573Z,2.63
2022-11-18T09:40:58.536Z,3.67
2022-11-18T09:43:34.720Z,2.25
2022-11-18T09:46:09.339Z,2.10
2022-11-18T09:48:56.451Z,2.57
2022-11-18T09:51:28.988Z,2.80
2022-11-18T09:53:56.662Z,2.10
2022-11-18T09:56:24.456Z,3.03
2022-11-18T09:58:52.200Z,3.93
2022-11-18T10:01:22.117Z,2.20
2022-11-18T10:03:51.749Z,3.90
2022-11-18T10:06:25.061Z,2.00
2022-11-18T10:09:06.574Z,4.03
2022-11-18T10:11:41.741Z,9.70
2022-11-18T10:14:28.267Z,3.70
2022-11-18T10:17:02.452Z,2.70
2022-11-18T10:19:35.641Z,3.28
2022-11-18T10:22:23.778Z,2.67
2022-11-18T10:24:53.562Z,2.38
2022-11-18T10:27:21.715Z,1.13
2022-11-18T10:29:54.943Z,1.40
2022-11-18T10:32:22.875Z,1.30
2022-11-18T10:34:53.847Z,1.70
2022-11-18T10:37:52.572Z,1.47
2022-11-18T10:40:26.633Z,1.30
2022-11-18T10:42:54.885Z,1.40
2022-11-18T10:45:26.858Z,1.02
2022-11-18T10:48:04.270Z,1.02
2022-11-18T10:50:35.823Z,1.20
2022-11-18T10:53:04.662Z,1.00
2022-11-18T10:55:32.390Z,0.98
2022-11-18T10:58:04.093Z,1.13
2022-11-18T11:00:42.403Z,1.10
2022-11-18T11:03:28.965Z,1.10
2022-11-18T11:06:22.675Z,1.10
2022-11-18T11:08:52.194Z,0.90
2022-11-18T11:11:28.673Z,0.70
2022-11-18T11:14:05.234Z,1.00
2022-11-18T11:16:37.271Z,1.42
2022-11-18T11:19:06.784Z,3.75
2022-11-18T11:21:35.972Z,2.72
2022-11-18T11:24:10.676Z,0.90
2022-11-18T11:29:53.063Z,0.55
2022-11-18T11:32:31.352Z,1.95
2022-11-18T11:35:08.148Z,0.80
2022-11-18T11:37:53.584Z,0.95
2022-11-18T11:40:29.318Z,0.90
2022-11-18T11:43:08.695Z,1.30
2022-11-18T11:45:44.228Z,0.70
2022-11-18T11:48:27.117Z,0.60
2022-11-18T11:51:04.356Z,1.80
2022-11-18T11:53:54.811Z,3.17
2022-11-18T11:56:31.386Z,1.00
2022-11-18T11:59:09.713Z,1.75
2022-11-18T12:01:47.322Z,3.03
2022-11-18T12:04:31.162Z,5.00
2022-11-18T12:07:00.231Z,3.30
2022-11-18T12:09:43.277Z,2.65
2022-11-18T12:12:38.378Z,2.80
2022-11-18T12:15:17.703Z,3.17
2022-11-18T12:17:54.112Z,2.30
2022-11-18T12:20:37.999Z,2.60
2022-11-18T12:23:17.467Z,2.90
2022-11-18T12:26:02.880Z,1.80
2022-11-18T12:28:33.525Z,1.10
2022-11-18T12:31:34.237Z,1.00
2022-11-18T12:34:06.515Z,1.30
2022-11-18T12:36:36.220Z,1.17
2022-11-18T12:39:47.507Z,1.45
2022-11-18T12:43:01.895Z,1.20
2022-11-18T12:45:50.678Z,1.60
2022-11-18T12:48:39.788Z,1.50
2022-11-18T12:51:40.884Z,1.85
2022-11-18T12:54:32.231Z,1.60
2022-11-18T12:57:02.603Z,1.40
2022-11-18T12:59:37.474Z,1.98
2022-11-18T13:02:21.123Z,1.70
2022-11-18T13:05:08.341Z,1.42
2022-11-18T13:08:00.118Z,1.35
2022-11-18T13:10:31.409Z,1.88
2022-11-18T13:12:59.813Z,1.33
2022-11-18T13:15:46.371Z,2.53
2022-11-18T13:18:18.357Z,1.40
2022-11-18T13:20:57.547Z,2.03
2022-11-18T13:23:47.088Z,2.05
2022-11-18T13:26:20.688Z,1.73
2022-11-18T13:29:03.984Z,2.35
2022-11-18T13:31:43.243Z,3.05
2022-11-18T13:34:18.709Z,2.97
2022-11-18T13:36:47.985Z,3.03
2022-11-18T13:39:22.137Z,3.20
2022-11-18T13:42:00.740Z,3.80
2022-11-18T13:44:30.443Z,2.45
2022-11-18T13:47:05.747Z,5.68
2022-11-18T13:49:58.994Z,3.53
2022-11-18T13:52:31.912Z,2.35
2022-11-18T13:55:01.362Z,4.13
2022-11-18T13:57:31.047Z,2.65
2022-11-18T14:00:03.810Z,3.40
2022-11-18T14:02:33.014Z,4.63
2022-11-18T14:05:02.990Z,2.00
2022-11-18T14:07:33.157Z,2.00
2022-11-18T14:10:02.418Z,5.30
2022-11-18T14:12:32.482Z,1.42
2022-11-18T14:15:20.416Z,4.85
2022-11-18T14:17:55.801Z,2.30
2022-11-18T14:20:24.848Z,2.17
2022-11-18T14:22:56.931Z,1.50
2022-11-18T14:25:29.111Z,3.10
2022-11-18T14:27:57.932Z,1.50
2022-11-18T14:30:34.592Z,3.78
2022-11-18T14:33:24.742Z,3.72
2022-11-18T14:35:56.273Z,5.43
2022-11-18T14:38:47.600Z,2.60
2022-11-18T14:41:44.398Z,3.17
2022-11-18T14:44:14.285Z,2.13
2022-11-18T14:46:44.406Z,2.40
2022-11-18T14:49:17.271Z,1.60
2022-11-18T14:51:45.243Z,1.73
2022-11-18T14:54:15.621Z,2.67
2022-11-18T14:56:45.889Z,1.17
2022-11-18T14:59:14.303Z,1.63
2022-11-18T15:01:42.694Z,1.92
2022-11-18T15:04:10.887Z,1.52
2022-11-18T15:06:40.479Z,1.20
2022-11-18T15:09:08.840Z,1.48
2022-11-18T15:11:36.779Z,1.95
2022-11-18T15:14:05.083Z,2.30
2022-11-18T15:16:34.484Z,5.53
2022-11-18T15:19:04.306Z,3.22
2022-11-18T15:21:32.387Z,3.50
2022-11-18T15:24:01.729Z,5.38
2022-11-18T15:26:33.459Z,2.67
2022-11-18T15:29:01.374Z,3.83
2022-11-18T15:31:29.113Z,5.95
2022-11-18T15:33:59.791Z,2.55
2022-11-18T15:36:29.853Z,5.38
2022-11-18T15:38:57.474Z,2.30
2022-11-18T15:41:28.350Z,2.58
2022-11-18T15:43:57.468Z,2.00
2022-11-18T15:46:27.547Z,3.72
2022-11-18T15:48:57.016Z,3.17
2022-11-18T15:51:26.086Z,3.28
2022-11-18T15:53:54.277Z,3.28
2022-11-18T15:56:29.124Z,2.10
2022-11-18T15:58:58.263Z,2.33
2022-11-18T16:01:27.458Z,1.80
2022-11-18T16:03:55.161Z,1.60
2022-11-18T16:06:23.374Z,1.98
2022-11-18T16:08:55.876Z,2.05
2022-11-18T16:11:46.510Z,1.60
2022-11-18T16:14:15.093Z,1.30
2022-11-18T16:16:44.856Z,2.42
2022-11-18T16:19:14.761Z,1.60
2022-11-18T16:21:44.439Z,1.80
2022-11-18T16:24:14.884Z,1.90
2022-11-18T16:26:43.857Z,1.50
2022-11-18T16:29:12.221Z,1.33
2022-11-18T16:31:43.476Z,1.60
2022-11-18T16:34:12.709Z,2.30
2022-11-18T16:36:42.524Z,1.90
2022-11-18T16:39:12.406Z,3.00
2022-11-18T16:41:41.435Z,3.97
2022-11-18T16:44:12.086Z,2.25
2022-11-18T16:46:41.417Z,2.15
2022-11-18T16:49:14.001Z,2.05
2022-11-18T16:51:43.143Z,2.10
2022-11-18T16:54:17.282Z,2.35
2022-11-18T16:56:45.482Z,2.20
2022-11-18T16:59:16.665Z,2.55
2022-11-18T17:01:45.149Z,2.05
2022-11-18T17:04:12.841Z,2.00
2022-11-18T17:06:41.452Z,2.45
2022-11-18T17:09:13.443Z,3.90
2022-11-18T17:11:41.351Z,2.17
2022-11-18T17:14:09.182Z,2.45
2022-11-18T17:16:38.164Z,8.10
2022-11-18T17:19:10.348Z,5.10
2022-11-18T17:21:39.446Z,3.53
2022-11-18T17:24:08.169Z,2.67
2022-11-18T17:26:36.220Z,2.40
2022-11-18T17:29:04.723Z,2.30
2022-11-18T17:31:32.552Z,2.20
2022-11-18T17:34:01.825Z,2.33
2022-11-18T17:36:29.850Z,2.08
2022-11-18T17:39:00.476Z,2.40
2022-11-18T17:41:47.770Z,2.20
2022-11-18T17:44:17.837Z,2.38
2022-11-18T17:46:47.101Z,2.20
2022-11-18T17:49:18.769Z,1.90
2022-11-18T17:51:46.991Z,2.10
2022-11-18T17:54:15.263Z,2.30
2022-11-18T17:56:43.212Z,2.13
2022-11-18T17:59:10.928Z,2.00
2022-11-18T18:01:38.627Z,2.15
2022-11-18T18:04:06.399Z,3.80
2022-11-18T18:06:35.422Z,2.90
2022-11-18T18:09:03.580Z,2.30
2022-11-18T18:11:31.201Z,2.42
2022-11-18T18:14:13.150Z,2.58
2022-11-18T18:16:43.304Z,3.10
2022-11-18T18:19:12.936Z,2.90
2022-11-18T18:21:42.324Z,2.30
2022-11-18T18:24:11.001Z,2.40
2022-11-18T18:26:39.407Z,2.30
2022-11-18T18:29:09.210Z,3.88
2022-11-18T18:31:38.236Z,2.50
2022-11-18T18:34:06.155Z,3.28
2022-11-18T18:36:33.828Z,2.25
2022-11-18T18:39:02.924Z,2.50
2022-11-18T18:41:32.270Z,2.40
2022-11-18T18:44:00.119Z,2.50
2022-11-18T18:46:32.063Z,2.78
2022-11-18T18:49:03.321Z,2.60
2022-11-18T18:51:34.381Z,2.40
2022-11-18T18:54:03.980Z,2.20
2022-11-18T18:56:31.792Z,2.22
2022-11-18T18:59:00.240Z,2.78
2022-11-18T19:01:28.575Z,2.80
2022-11-18T19:03:57.697Z,2.60
2022-11-18T19:06:50.554Z,2.80
2022-11-18T19:09:16.981Z,3.40
2022-11-18T19:12:03.347Z,2.55
2022-11-18T19:14:31.540Z,2.42
2022-11-18T19:17:02.478Z,2.25
2022-11-18T19:19:51.854Z,3.00
2022-11-18T19:22:20.152Z,2.25
2022-11-18T19:24:50.774Z,2.43
2022-11-18T19:27:19.684Z,2.63
2022-11-18T19:29:48.095Z,2.30
2022-11-18T19:32:16.340Z,3.00
2022-11-18T19:34:44.371Z,2.85
2022-11-18T19:37:12.490Z,2.92
2022-11-18T19:39:40.362Z,5.65
2022-11-18T19:42:10.906Z,5.35
2022-11-18T19:44:39.247Z,5.57
2022-11-18T19:47:07.273Z,3.42
2022-11-18T19:49:35.147Z,3.70
2022-11-18T19:52:03.351Z,6.13
2022-11-18T19:54:31.310Z,2.60
2022-11-18T19:56:59.746Z,2.70
2022-11-18T19:59:28.865Z,2.90
2022-11-18T20:01:56.869Z,2.60
2022-11-18T20:04:25.039Z,2.40
2022-11-18T20:06:52.906Z,2.60
2022-11-18T20:09:21.026Z,2.57
2022-11-18T20:11:49.643Z,3.28
2022-11-18T20:14:17.439Z,3.17
2022-11-18T20:16:46.808Z,3.20
2022-11-18T20:19:17.084Z,3.20
2022-11-18T20:21:44.844Z,2.90
2022-11-18T20:24:16.811Z,2.90
2022-11-18T20:26:45.509Z,3.10
2022-11-18T20:29:13.463Z,3.00
2022-11-18T20:31:41.701Z,2.53
2022-11-18T20:34:14.236Z,3.38
2022-11-18T20:36:42.270Z,3.20
2022-11-18T20:39:14.439Z,3.40
2022-11-18T20:41:42.175Z,4.15
2022-11-18T20:44:09.792Z,4.68
2022-11-18T20:46:37.498Z,5.43
2022-11-18T20:49:05.220Z,4.00
2022-11-18T20:51:34.516Z,3.20
2022-11-18T20:54:07.576Z,3.00
2022-11-18T20:56:35.271Z,3.20
2022-11-18T20:59:02.980Z,3.38
2022-11-18T21:01:33.022Z,3.88
2022-11-18T21:04:03.305Z,6.53
2022-11-18T21:06:32.697Z,5.55
2022-11-18T21:09:03.204Z,4.43
2022-11-18T21:11:31.707Z,3.60
2022-11-18T21:14:22.997Z,2.60
2022-11-18T21:16:52.530Z,2.35
2022-11-18T21:19:20.631Z,3.30
2022-11-18T21:21:51.866Z,3.83
2022-11-18T21:24:22.866Z,2.95
2022-11-18T21:26:54.288Z,3.00
2022-11-18T21:29:22.688Z,3.88
2022-11-18T21:31:50.415Z,3.53
2022-11-18T21:34:19.097Z,3.45
2022-11-18T21:36:51.718Z,2.70
2022-11-18T21:39:23.947Z,2.80
2022-11-18T21:41:55.697Z,2.90
2022-11-18T21:44:24.220Z,4.93
2022-11-18T21:46:51.795Z,5.10
2022-11-18T21:49:19.664Z,4.50
2022-11-18T21:51:47.364Z,6.03
2022-11-18T21:54:18.022Z,5.82
2022-11-18T21:56:47.030Z,11.73
2022-11-18T21:59:14.698Z,7.43
2022-11-18T22:01:42.333Z,5.30
2022-11-18T22:04:30.011Z,4.93
2022-11-18T22:06:57.632Z,4.13
2022-11-18T22:09:25.224Z,3.60
2022-11-18T22:11:54.525Z,4.43
2022-11-18T22:14:22.165Z,3.55
2022-11-18T22:16:51.300Z,6.78
2022-11-18T22:19:19.010Z,7.40
2022-11-18T22:21:47.119Z,6.50
2022-11-18T22:24:14.704Z,5.13
2022-11-18T22:26:42.272Z,3.72
2022-11-18T22:29:11.214Z,3.40
2022-11-18T22:31:39.098Z,3.45
2022-11-18T22:34:06.726Z,3.93
2022-11-18T22:36:34.369Z,3.75
2022-11-18T22:39:02.282Z,3.05
2022-11-18T22:41:48.197Z,2.92
2022-11-18T22:44:17.888Z,2.60
2022-11-18T22:46:46.761Z,2.60
2022-11-18T22:49:14.702Z,3.00
2022-11-18T22:51:42.475Z,2.97
2022-11-18T22:54:37.033Z,2.97
2022-11-18T22:56:58.242Z,3.88
2022-11-18T22:59:27.176Z,3.57
2022-11-18T23:01:55.047Z,3.70
2022-11-18T23:04:22.686Z,3.00
2022-11-18T23:06:50.616Z,2.75
2022-11-18T23:09:18.577Z,3.20
2022-11-18T23:12:04.285Z,3.00
2022-11-18T23:14:33.314Z,2.90
2022-11-18T23:17:01.419Z,2.80
2022-11-18T23:19:29.117Z,2.97
2022-11-18T23:21:57.294Z,2.90
2022-11-18T23:24:25.344Z,2.83
2022-11-18T23:26:52.956Z,2.60
2022-11-18T23:29:21.487Z,2.60
2022-11-18T23:31:50.912Z,3.80
2022-11-18T23:34:19.537Z,2.53
2022-11-18T23:36:47.654Z,2.50
2022-11-18T23:39:15.318Z,2.70
2022-11-18T23:41:42.964Z,2.70
2022-11-18T23:44:10.575Z,2.80
2022-11-18T23:46:38.363Z,2.70
2022-11-18T23:49:10.677Z,2.40
2022-11-18T23:51:38.373Z,2.55
2022-11-18T23:54:06.111Z,2.90
2022-11-18T23:56:37.729Z,2.63
2022-11-18T23:59:05.579Z,3.10
